Time;durP1;ratioP1;P1;durP2;ratioP2;P2;SDS_P1;SDS_P2;PMS_P1;PMS_P2;Temp;Humidity;BMP_temperature;BMP_pressure;BME280_temperature;BME280_humidity;BME280_pressure;Samples;Min_cycle;Max_cycle;Signal;HPM_P1;HPM_P2
2023/05/07 00:01:10;;;;;;;17.05;10.73;;;;;;;;;;5060074;28;20425;-79
2023/05/07 00:03:44;;;;;;;20.17;11.20;;;;;;;;;;5058346;28;20421;-80
2023/05/07 00:06:17;;;;;;;19.20;11.10;;;;;;;;;;5056915;28;20734;-81
2023/05/07 00:08:44;;;;;;;17.42;10.63;;;;;;;;;;5053292;28;20918;-80
2023/05/07 00:11:12;;;;;;;17.73;11.00;;;;;;;;;;5057881;28;20434;-80
2023/05/07 00:13:40;;;;;;;18.25;10.93;;;;;;;;;;5055195;28;20434;-79
2023/05/07 00:16:07;;;;;;;18.42;11.07;;;;;;;;;;5054623;28;20413;-80
2023/05/07 00:18:37;;;;;;;16.90;10.63;;;;;;;;;;5056541;28;20429;-80
2023/05/07 00:21:09;;;;;;;17.20;10.65;;;;;;;;;;5057405;28;20758;-80
2023/05/07 00:23:42;;;;;;;18.80;10.93;;;;;;;;;;5056407;28;21181;-80
2023/05/07 00:26:10;;;;;;;18.42;10.93;;;;;;;;;;5055224;28;20742;-80
2023/05/07 00:28:38;;;;;;;18.10;10.80;;;;;;;;;;5057086;28;20432;-81
2023/05/07 00:31:11;;;;;;;18.80;10.70;;;;;;;;;;5058248;28;20425;-79
2023/05/07 00:33:45;;;;;;;18.35;10.75;;;;;;;;;;5060700;28;20882;-80
2023/05/07 00:36:17;;;;;;;18.42;10.68;;;;;;;;;;5062113;28;20430;-81
2023/05/07 00:38:45;;;;;;;16.92;10.32;;;;;;;;;;5060315;28;20877;-80
2023/05/07 00:41:18;;;;;;;14.77;9.23;;;;;;;;;;5059459;28;20893;-80
2023/05/07 00:43:46;;;;;;;15.32;9.27;;;;;;;;;;5064379;28;20983;-80
2023/05/07 00:46:14;;;;;;;16.35;9.43;;;;;;;;;;5056622;28;20421;-79
2023/05/07 00:48:42;;;;;;;17.02;9.70;;;;;;;;;;5059704;28;21020;-80
2023/05/07 00:51:12;;;;;;;15.23;9.25;;;;;;;;;;5058197;28;20415;-80
2023/05/07 00:53:45;;;;;;;17.63;9.65;;;;;;;;;;5059503;28;20429;-81
2023/05/07 00:56:17;;;;;;;17.60;10.35;;;;;;;;;;5058735;28;21220;-80
2023/05/07 00:58:45;;;;;;;16.95;10.18;;;;;;;;;;5059063;28;20496;-80
2023/05/07 01:01:15;;;;;;;17.55;10.18;;;;;;;;;;5065518;28;20896;-80
2023/05/07 01:03:43;;;;;;;16.70;9.90;;;;;;;;;;5075649;28;20924;-82
2023/05/07 01:06:13;;;;;;;14.70;9.50;;;;;;;;;;5065094;28;20456;-81
2023/05/07 01:08:46;;;;;;;15.40;10.05;;;;;;;;;;5062355;28;20432;-80
2023/05/07 01:11:14;;;;;;;16.90;10.40;;;;;;;;;;5058449;28;20431;-80
2023/05/07 01:13:47;;;;;;;15.57;9.57;;;;;;;;;;5057945;28;20799;-80
2023/05/07 01:16:15;;;;;;;16.90;9.88;;;;;;;;;;5067294;28;20415;-80
2023/05/07 01:18:48;;;;;;;15.38;9.73;;;;;;;;;;5057387;28;20776;-80
2023/05/07 01:21:26;;;;;;;18.03;10.67;;;;;;;;;;5064290;28;20727;-79
2023/05/07 01:24:00;;;;;;;18.83;11.50;;;;;;;;;;5059882;28;20910;-81
2023/05/07 01:26:33;;;;;;;17.10;10.93;;;;;;;;;;5060210;28;20785;-81
2023/05/07 01:29:07;;;;;;;18.67;10.63;;;;;;;;;;5060013;28;20757;-81
2023/05/07 01:31:35;;;;;;;17.15;10.60;;;;;;;;;;5058514;28;20421;-80
2023/05/07 01:34:04;;;;;;;17.00;9.98;;;;;;;;;;5058105;28;20429;-80
2023/05/07 01:36:33;;;;;;;15.07;9.77;;;;;;;;;;5051601;28;20436;-80
2023/05/07 01:39:03;;;;;;;17.83;10.90;;;;;;;;;;5058549;28;20429;-80
2023/05/07 01:41:31;;;;;;;16.38;10.38;;;;;;;;;;5078723;28;20432;-80
2023/05/07 01:43:59;;;;;;;18.52;10.95;;;;;;;;;;5051268;28;20425;-80
2023/05/07 01:46:27;;;;;;;16.42;10.70;;;;;;;;;;5050631;28;20809;-81
2023/05/07 01:49:00;;;;;;;16.35;10.73;;;;;;;;;;5054431;28;20421;-80
2023/05/07 01:51:28;;;;;;;17.40;10.43;;;;;;;;;;5051912;28;20446;-81
2023/05/07 01:53:56;;;;;;;17.45;10.07;;;;;;;;;;5053070;28;20417;-81
2023/05/07 01:56:26;;;;;;;16.73;10.23;;;;;;;;;;5055440;28;20922;-79
2023/05/07 01:58:59;;;;;;;17.48;10.07;;;;;;;;;;5057852;28;20438;-80
2023/05/07 02:01:26;;;;;;;15.02;9.68;;;;;;;;;;5050936;28;20421;-80
2023/05/07 02:03:54;;;;;;;16.10;10.00;;;;;;;;;;5055153;28;20438;-80
2023/05/07 02:06:25;;;;;;;15.98;9.85;;;;;;;;;;5052940;28;20420;-80
2023/05/07 02:08:57;;;;;;;15.20;9.00;;;;;;;;;;5057074;28;20433;-80
2023/05/07 02:11:31;;;;;;;15.03;9.20;;;;;;;;;;5058619;28;20433;-80
2023/05/07 02:14:00;;;;;;;15.15;9.23;;;;;;;;;;5056603;28;20438;-81
2023/05/07 02:16:32;;;;;;;13.75;8.50;;;;;;;;;;5056141;28;20436;-81
2023/05/07 02:19:00;;;;;;;13.23;8.48;;;;;;;;;;5058298;28;20436;-81
2023/05/07 02:21:28;;;;;;;13.88;8.98;;;;;;;;;;5056003;28;21222;-82
2023/05/07 02:24:01;;;;;;;14.23;8.57;;;;;;;;;;5053552;28;20427;-80
2023/05/07 02:26:29;;;;;;;14.10;8.55;;;;;;;;;;5056086;28;20428;-81
2023/05/07 02:28:58;;;;;;;13.87;8.43;;;;;;;;;;5058330;28;20494;-80
2023/05/07 02:31:26;;;;;;;13.35;8.85;;;;;;;;;;5054449;28;20920;-79
2023/05/07 02:33:54;;;;;;;12.63;8.27;;;;;;;;;;5063664;28;20424;-81
2023/05/07 02:36:21;;;;;;;13.55;8.13;;;;;;;;;;5059293;28;20412;-81
2023/05/07 02:39:02;;;;;;;11.85;7.60;;;;;;;;;;5058148;28;20428;-80
2023/05/07 02:41:35;;;;;;;12.32;7.95;;;;;;;;;;5066255;28;20448;-81
2023/05/07 02:44:04;;;;;;;13.65;7.97;;;;;;;;;;5052817;28;20449;-80
2023/05/07 02:46:33;;;;;;;12.75;7.70;;;;;;;;;;5056252;28;20508;-81
2023/05/07 02:49:09;;;;;;;12.95;7.85;;;;;;;;;;5055966;28;20415;-80
2023/05/07 02:51:42;;;;;;;13.23;7.55;;;;;;;;;;5059025;28;20413;-80
2023/05/07 02:54:20;;;;;;;13.40;7.70;;;;;;;;;;5058093;28;20419;-80
2023/05/07 02:56:48;;;;;;;12.88;7.63;;;;;;;;;;5057355;28;20940;-80
2023/05/07 02:59:22;;;;;;;12.85;7.53;;;;;;;;;;5060212;28;20793;-81
2023/05/07 03:01:50;;;;;;;12.65;7.93;;;;;;;;;;5050197;28;20933;-81
2023/05/07 03:04:18;;;;;;;13.77;8.13;;;;;;;;;;5051744;28;20452;-81
2023/05/07 03:06:51;;;;;;;13.70;8.00;;;;;;;;;;5050733;28;20429;-80
2023/05/07 03:09:19;;;;;;;13.05;8.18;;;;;;;;;;5066556;28;20428;-80
2023/05/07 03:11:47;;;;;;;13.98;8.27;;;;;;;;;;5050518;28;20421;-82
2023/05/07 03:14:14;;;;;;;14.30;8.60;;;;;;;;;;5051474;28;20429;-81
2023/05/07 03:16:44;;;;;;;13.23;8.15;;;;;;;;;;5053212;28;20421;-82
2023/05/07 03:19:16;;;;;;;13.77;8.60;;;;;;;;;;5050791;28;20429;-80
2023/05/07 03:21:44;;;;;;;14.05;8.88;;;;;;;;;;5049428;28;20443;-81
2023/05/07 03:24:12;;;;;;;13.98;8.32;;;;;;;;;;5051473;28;20427;-80
2023/05/07 03:26:40;;;;;;;15.10;8.82;;;;;;;;;;5051397;28;20425;-79
2023/05/07 03:29:08;;;;;;;14.73;8.75;;;;;;;;;;5050116;28;20433;-81
2023/05/07 03:31:36;;;;;;;13.98;8.43;;;;;;;;;;5057160;28;20423;-80
2023/05/07 03:34:05;;;;;;;12.80;8.10;;;;;;;;;;5055477;28;20480;-83
2023/05/07 03:36:33;;;;;;;14.27;8.70;;;;;;;;;;5059501;28;20421;-81
2023/05/07 03:39:00;;;;;;;12.80;8.07;;;;;;;;;;5063046;28;20441;-81
2023/05/07 03:41:38;;;;;;;12.90;8.17;;;;;;;;;;5057202;28;20949;-84
2023/05/07 03:44:11;;;;;;;13.00;7.97;;;;;;;;;;5057065;28;21031;-80
2023/05/07 03:46:40;;;;;;;13.10;7.95;;;;;;;;;;5059434;28;20416;-81
2023/05/07 03:49:11;;;;;;;13.07;8.15;;;;;;;;;;5063349;28;20428;-80
2023/05/07 03:51:39;;;;;;;13.00;7.82;;;;;;;;;;5055686;28;20866;-80
2023/05/07 03:54:08;;;;;;;13.60;7.78;;;;;;;;;;5056735;28;20442;-80
2023/05/07 03:56:37;;;;;;;13.25;7.60;;;;;;;;;;5050245;28;20506;-81
2023/05/07 03:59:10;;;;;;;12.80;7.13;;;;;;;;;;5052234;28;20441;-80
2023/05/07 04:01:45;;;;;;;11.95;7.43;;;;;;;;;;5056607;28;21701;-81
2023/05/07 04:04:22;;;;;;;13.20;7.18;;;;;;;;;;5055937;28;20436;-80
2023/05/07 04:06:50;;;;;;;12.98;7.50;;;;;;;;;;5053861;28;20433;-80
2023/05/07 04:09:17;;;;;;;12.80;7.35;;;;;;;;;;5052784;28;20429;-81
2023/05/07 04:11:47;;;;;;;12.33;7.40;;;;;;;;;;5055994;28;20770;-83
2023/05/07 04:14:20;;;;;;;11.70;7.20;;;;;;;;;;5056118;28;20415;-81
2023/05/07 04:16:49;;;;;;;12.90;7.40;;;;;;;;;;5057577;28;20417;-80
2023/05/07 04:19:23;;;;;;;13.23;7.57;;;;;;;;;;5057298;28;20432;-80
2023/05/07 04:21:53;;;;;;;13.52;8.10;;;;;;;;;;5054372;28;20436;-79
2023/05/07 04:24:22;;;;;;;12.40;7.30;;;;;;;;;;5058615;28;20434;-81
2023/05/07 04:26:50;;;;;;;11.23;6.47;;;;;;;;;;5076481;28;20432;-80
2023/05/07 04:29:20;;;;;;;11.40;7.20;;;;;;;;;;5058431;28;20409;-81
2023/05/07 04:31:48;;;;;;;13.40;7.95;;;;;;;;;;5060073;28;20786;-81
2023/05/07 04:34:21;;;;;;;12.93;7.78;;;;;;;;;;5062696;28;20887;-81
2023/05/07 04:36:50;;;;;;;12.38;7.35;;;;;;;;;;5062334;28;20425;-80
2023/05/07 04:39:23;;;;;;;13.15;7.40;;;;;;;;;;5065390;28;20432;-81
2023/05/07 04:41:56;;;;;;;12.80;7.40;;;;;;;;;;5061585;28;20428;-81
2023/05/07 04:44:25;;;;;;;12.77;7.35;;;;;;;;;;5058027;28;20421;-80
2023/05/07 04:46:54;;;;;;;11.63;6.85;;;;;;;;;;5069240;28;20413;-80
2023/05/07 04:49:22;;;;;;;11.00;6.80;;;;;;;;;;5059194;28;20415;-81
2023/05/07 04:51:53;;;;;;;12.18;6.65;;;;;;;;;;5061197;28;20440;-81
2023/05/07 04:54:26;;;;;;;12.73;7.13;;;;;;;;;;5059437;28;20460;-82
2023/05/07 04:57:00;;;;;;;14.05;7.40;;;;;;;;;;5055361;28;20437;-83
2023/05/07 04:59:28;;;;;;;11.95;7.03;;;;;;;;;;5066106;28;20435;-81
2023/05/07 05:02:01;;;;;;;11.97;7.17;;;;;;;;;;5059901;28;20463;-81
2023/05/07 05:04:34;;;;;;;12.13;7.28;;;;;;;;;;5053172;28;20433;-80
2023/05/07 05:07:08;;;;;;;11.33;6.93;;;;;;;;;;5053301;28;20429;-79
2023/05/07 05:09:37;;;;;;;11.07;6.97;;;;;;;;;;5070118;28;20447;-80
2023/05/07 05:12:10;;;;;;;12.48;6.95;;;;;;;;;;5053625;28;20454;-82
2023/05/07 05:14:43;;;;;;;11.68;6.63;;;;;;;;;;5056847;28;20439;-81
2023/05/07 05:17:16;;;;;;;11.73;7.00;;;;;;;;;;5051269;28;20417;-81
2023/05/07 05:19:44;;;;;;;11.48;6.90;;;;;;;;;;5052204;28;20917;-81
2023/05/07 05:22:13;;;;;;;11.63;7.50;;;;;;;;;;5057606;28;20429;-81
2023/05/07 05:24:41;;;;;;;11.63;6.63;;;;;;;;;;5053866;28;21163;-82
2023/05/07 05:27:13;;;;;;;11.65;6.85;;;;;;;;;;5052175;28;20427;-81
2023/05/07 05:29:41;;;;;;;11.82;6.90;;;;;;;;;;5056592;28;20921;-81
2023/05/07 05:32:09;;;;;;;10.75;6.47;;;;;;;;;;5055096;28;20436;-81
2023/05/07 05:34:42;;;;;;;11.85;7.03;;;;;;;;;;5068020;28;20432;-81
2023/05/07 05:37:12;;;;;;;10.83;6.47;;;;;;;;;;5055439;28;20426;-82
2023/05/07 05:39:41;;;;;;;10.73;6.65;;;;;;;;;;5052703;28;20433;-81
2023/05/07 05:42:10;;;;;;;12.88;6.93;;;;;;;;;;5068891;28;20432;-82
2023/05/07 05:44:38;;;;;;;10.60;6.40;;;;;;;;;;5053236;28;20428;-80
2023/05/07 05:47:11;;;;;;;11.25;6.30;;;;;;;;;;5050415;28;21203;-81
2023/05/07 05:49:39;;;;;;;10.23;5.80;;;;;;;;;;5057028;28;20423;-80
2023/05/07 05:52:17;;;;;;;10.82;6.80;;;;;;;;;;5052543;28;20956;-81
2023/05/07 05:54:46;;;;;;;11.00;6.65;;;;;;;;;;5059370;28;20984;-82
2023/05/07 05:57:14;;;;;;;11.27;6.55;;;;;;;;;;5056055;28;20421;-82
2023/05/07 05:59:43;;;;;;;10.40;6.22;;;;;;;;;;5057163;28;20932;-81
2023/05/07 06:02:11;;;;;;;11.68;6.80;;;;;;;;;;5051081;28;20436;-80
2023/05/07 06:04:39;;;;;;;12.20;6.82;;;;;;;;;;5053757;28;20915;-81
2023/05/07 06:07:17;;;;;;;10.77;6.57;;;;;;;;;;5060136;28;20428;-83
2023/05/07 06:09:51;;;;;;;12.80;6.80;;;;;;;;;;5053654;28;20445;-81
2023/05/07 06:12:24;;;;;;;12.35;6.53;;;;;;;;;;5055275;28;20433;-79
2023/05/07 06:14:52;;;;;;;12.23;6.50;;;;;;;;;;5052576;28;20421;-80
2023/05/07 06:17:19;;;;;;;10.38;5.80;;;;;;;;;;5056426;28;20421;-82
2023/05/07 06:19:47;;;;;;;10.55;6.10;;;;;;;;;;5060178;28;20470;-81
2023/05/07 06:22:22;;;;;;;11.25;6.45;;;;;;;;;;5055881;28;20433;-80
2023/05/07 06:24:50;;;;;;;11.82;6.15;;;;;;;;;;5063866;28;20435;-80
2023/05/07 06:27:18;;;;;;;10.05;6.47;;;;;;;;;;5056482;28;20432;-79
2023/05/07 06:29:46;;;;;;;10.20;6.25;;;;;;;;;;5058082;28;20434;-81
2023/05/07 06:32:16;;;;;;;10.85;6.18;;;;;;;;;;5062039;28;20412;-82
2023/05/07 06:34:50;;;;;;;9.65;5.72;;;;;;;;;;5058419;28;20431;-81
2023/05/07 06:37:19;;;;;;;10.23;6.07;;;;;;;;;;5056695;28;20432;-81
2023/05/07 06:39:58;;;;;;;9.98;6.05;;;;;;;;;;5066593;28;20780;-81
2023/05/07 06:42:33;;;;;;;9.52;6.15;;;;;;;;;;5061204;28;20435;-81
2023/05/07 06:45:26;;;;;;;8.82;5.82;;;;;;;;;;5054947;28;20424;-82
2023/05/07 06:47:59;;;;;;;10.38;6.30;;;;;;;;;;5066122;28;20984;-79
2023/05/07 06:50:29;;;;;;;9.52;6.22;;;;;;;;;;5074429;28;20429;-79
2023/05/07 06:52:58;;;;;;;9.32;6.22;;;;;;;;;;5057951;28;20434;-80
2023/05/07 06:55:27;;;;;;;11.68;6.15;;;;;;;;;;5058390;28;20409;-82
2023/05/07 06:57:57;;;;;;;9.05;5.93;;;;;;;;;;5065286;28;20786;-79
2023/05/07 07:00:30;;;;;;;10.60;5.88;;;;;;;;;;5070820;28;20913;-80
2023/05/07 07:02:59;;;;;;;10.52;5.80;;;;;;;;;;5056135;28;20506;-80
2023/05/07 07:05:28;;;;;;;10.90;6.00;;;;;;;;;;5059249;28;20432;-77
2023/05/07 07:08:03;;;;;;;9.25;5.88;;;;;;;;;;5056993;28;20429;-80
2023/05/07 07:10:32;;;;;;;8.88;5.40;;;;;;;;;;5057855;28;20438;-80
2023/05/07 07:13:05;;;;;;;9.18;5.05;;;;;;;;;;5055832;28;21125;-80
2023/05/07 07:15:38;;;;;;;9.48;5.18;;;;;;;;;;5062478;28;20422;-80
2023/05/07 07:18:06;;;;;;;8.70;5.18;;;;;;;;;;5059604;28;20862;-79
2023/05/07 07:20:39;;;;;;;8.70;5.30;;;;;;;;;;5057368;28;20410;-81
2023/05/07 07:23:08;;;;;;;8.93;5.00;;;;;;;;;;5076419;28;20477;-80
2023/05/07 07:25:43;;;;;;;9.40;5.00;;;;;;;;;;5056860;28;20429;-81
2023/05/07 07:28:11;;;;;;;8.90;4.90;;;;;;;;;;5057381;28;20756;-80
2023/05/07 07:30:40;;;;;;;8.80;4.90;;;;;;;;;;5057377;28;20423;-81
2023/05/07 07:33:08;;;;;;;10.52;4.93;;;;;;;;;;5058454;28;20760;-81
2023/05/07 07:35:37;;;;;;;9.55;4.78;;;;;;;;;;5067280;28;20424;-80
2023/05/07 07:38:06;;;;;;;8.98;5.18;;;;;;;;;;5054445;28;20916;-81
2023/05/07 07:40:39;;;;;;;8.50;5.03;;;;;;;;;;5064099;28;20774;-80
2023/05/07 07:43:14;;;;;;;8.80;4.80;;;;;;;;;;5060114;28;20446;-80
2023/05/07 07:45:47;;;;;;;8.32;5.20;;;;;;;;;;5058856;28;20432;-81
2023/05/07 07:48:15;;;;;;;8.95;5.30;;;;;;;;;;5057819;28;20425;-81
2023/05/07 07:50:43;;;;;;;9.95;5.10;;;;;;;;;;5059469;28;20425;-80
2023/05/07 07:53:11;;;;;;;10.45;5.70;;;;;;;;;;5057375;28;20728;-80
2023/05/07 07:55:39;;;;;;;9.50;5.50;;;;;;;;;;5073928;28;20416;-80
2023/05/07 07:58:08;;;;;;;9.23;5.68;;;;;;;;;;5056691;28;21337;-81
2023/05/07 08:00:37;;;;;;;9.18;5.53;;;;;;;;;;5059740;28;20438;-80
2023/05/07 08:03:07;;;;;;;9.15;5.30;;;;;;;;;;5058835;28;20429;-80
2023/05/07 08:05:40;;;;;;;9.17;5.40;;;;;;;;;;5055879;28;20419;-82
2023/05/07 08:08:13;;;;;;;9.85;5.60;;;;;;;;;;5067456;28;20431;-82
2023/05/07 08:10:42;;;;;;;9.85;5.60;;;;;;;;;;5053224;28;20897;-80
2023/05/07 08:13:18;;;;;;;10.35;5.30;;;;;;;;;;5060187;28;20904;-78
2023/05/07 08:15:47;;;;;;;8.50;5.22;;;;;;;;;;5060515;28;20425;-79
2023/05/07 08:18:15;;;;;;;10.00;5.43;;;;;;;;;;5058324;28;20415;-81
2023/05/07 08:20:48;;;;;;;7.90;5.00;;;;;;;;;;5063335;28;20416;-80
2023/05/07 08:23:20;;;;;;;8.57;4.97;;;;;;;;;;5058423;28;20436;-80
2023/05/07 08:25:48;;;;;;;8.15;4.85;;;;;;;;;;5059171;28;20424;-81
2023/05/07 08:28:21;;;;;;;10.40;4.80;;;;;;;;;;5058832;28;20425;-79
2023/05/07 08:30:53;;;;;;;8.82;4.53;;;;;;;;;;5058328;28;20928;-80
2023/05/07 08:33:21;;;;;;;9.15;4.93;;;;;;;;;;5053487;28;20439;-80
2023/05/07 08:35:49;;;;;;;9.13;4.97;;;;;;;;;;5054907;28;20430;-80
2023/05/07 08:38:17;;;;;;;7.38;4.60;;;;;;;;;;5061521;28;20932;-80
2023/05/07 08:40:45;;;;;;;8.35;4.70;;;;;;;;;;5059430;28;20421;-81
2023/05/07 08:43:19;;;;;;;7.65;4.82;;;;;;;;;;5058435;28;20430;-79
2023/05/07 08:45:54;;;;;;;7.73;4.77;;;;;;;;;;5056299;28;20429;-80
2023/05/07 08:48:26;;;;;;;9.65;4.80;;;;;;;;;;5063450;28;20460;-79
2023/05/07 08:51:06;;;;;;;8.73;4.97;;;;;;;;;;5052964;28;21058;-81
2023/05/07 08:53:36;;;;;;;7.97;4.80;;;;;;;;;;5059149;28;20417;-80
2023/05/07 08:56:04;;;;;;;8.90;5.53;;;;;;;;;;5065253;28;20416;-81
2023/05/07 08:58:32;;;;;;;8.75;4.80;;;;;;;;;;5059149;28;20442;-81
2023/05/07 09:01:02;;;;;;;9.57;4.80;;;;;;;;;;5063652;28;20419;-80
2023/05/07 09:03:35;;;;;;;8.40;4.78;;;;;;;;;;5060279;28;20435;-81
2023/05/07 09:06:08;;;;;;;7.68;4.68;;;;;;;;;;5059641;28;20505;-80
2023/05/07 09:08:41;;;;;;;8.67;4.43;;;;;;;;;;5057616;28;20440;-80
2023/05/07 09:11:10;;;;;;;8.10;4.53;;;;;;;;;;5059261;28;20424;-81
2023/05/07 09:13:38;;;;;;;7.80;4.45;;;;;;;;;;5058255;28;20425;-81
2023/05/07 09:16:13;;;;;;;7.90;4.28;;;;;;;;;;5055296;28;20793;-81
2023/05/07 09:18:47;;;;;;;7.50;4.30;;;;;;;;;;5061498;28;20423;-80
2023/05/07 09:21:16;;;;;;;7.93;4.75;;;;;;;;;;5056868;28;20905;-81
2023/05/07 09:23:44;;;;;;;8.10;5.00;;;;;;;;;;5070654;28;20427;-82
2023/05/07 09:26:13;;;;;;;8.07;4.88;;;;;;;;;;5057100;28;20446;-81
2023/05/07 09:28:46;;;;;;;8.00;4.80;;;;;;;;;;5055055;28;20427;-80
2023/05/07 09:31:16;;;;;;;7.25;4.40;;;;;;;;;;5058701;28;20421;-81
2023/05/07 09:33:49;;;;;;;7.73;4.50;;;;;;;;;;5056523;28;20496;-82
2023/05/07 09:36:18;;;;;;;8.00;4.10;;;;;;;;;;5057585;28;20429;-80
2023/05/07 09:38:47;;;;;;;8.15;4.43;;;;;;;;;;5075941;28;20429;-81
2023/05/07 09:41:20;;;;;;;8.88;4.15;;;;;;;;;;5058235;28;20417;-80
2023/05/07 09:44:11;;;;;;;8.02;4.40;;;;;;;;;;5062351;28;20429;-81
2023/05/07 09:46:54;;;;;;;7.60;4.55;;;;;;;;;;5049141;28;20730;-81
2023/05/07 09:49:35;;;;;;;7.65;4.57;;;;;;;;;;5048482;28;20429;-82
2023/05/07 09:52:10;;;;;;;7.47;4.45;;;;;;;;;;5046758;28;20423;-84
2023/05/07 09:54:48;;;;;;;6.82;4.10;;;;;;;;;;5031373;28;20423;-81
2023/05/07 09:57:17;;;;;;;7.17;3.77;;;;;;;;;;5053767;28;20438;-81
2023/05/07 09:59:57;;;;;;;8.20;4.13;;;;;;;;;;5041989;28;20435;-82
2023/05/07 10:02:28;;;;;;;9.00;4.40;;;;;;;;;;5038358;28;20424;-83
2023/05/07 10:05:02;;;;;;;8.35;4.47;;;;;;;;;;5042893;28;20424;-81
2023/05/07 10:07:32;;;;;;;7.80;4.23;;;;;;;;;;5042465;28;20431;-80
2023/05/07 10:10:08;;;;;;;8.50;3.60;;;;;;;;;;5042462;28;20459;-83
2023/05/07 10:12:43;;;;;;;5.85;3.15;;;;;;;;;;5047751;28;20894;-81
2023/05/07 10:15:24;;;;;;;6.60;3.67;;;;;;;;;;5043614;28;20437;-82
2023/05/07 10:17:56;;;;;;;6.30;3.80;;;;;;;;;;5038329;28;20446;-82
2023/05/07 10:20:30;;;;;;;6.90;3.42;;;;;;;;;;5042738;28;20419;-82
2023/05/07 10:23:06;;;;;;;8.13;3.78;;;;;;;;;;5036265;28;20792;-83
2023/05/07 10:25:41;;;;;;;9.00;3.53;;;;;;;;;;5036003;28;20427;-81
2023/05/07 10:28:24;;;;;;;7.90;3.60;;;;;;;;;;5035469;28;21390;-81
2023/05/07 10:31:00;;;;;;;6.35;3.75;;;;;;;;;;5039103;28;20938;-81
2023/05/07 10:33:44;;;;;;;7.90;3.67;;;;;;;;;;5038589;28;20424;-82
2023/05/07 10:36:12;;;;;;;6.50;3.72;;;;;;;;;;5041057;28;20700;-81
2023/05/07 10:38:40;;;;;;;6.28;3.40;;;;;;;;;;5033062;28;20435;-82
2023/05/07 10:41:15;;;;;;;5.40;3.30;;;;;;;;;;5043278;28;21661;-80
2023/05/07 10:43:48;;;;;;;6.28;3.50;;;;;;;;;;5041092;28;20427;-81
2023/05/07 10:46:30;;;;;;;7.17;3.63;;;;;;;;;;5040543;28;20448;-81
2023/05/07 10:49:25;;;;;;;6.82;3.03;;;;;;;;;;5038298;28;20436;-83
2023/05/07 10:52:15;;;;;;;4.95;2.80;;;;;;;;;;5037704;28;20973;-81
2023/05/07 10:55:24;;;;;;;5.63;3.22;;;;;;;;;;5029802;28;20446;-80
2023/05/07 10:58:18;;;;;;;6.78;3.40;;;;;;;;;;5039526;28;20902;-80
2023/05/07 11:00:46;;;;;;;6.15;3.40;;;;;;;;;;5039311;28;20438;-80
2023/05/07 11:03:26;;;;;;;5.88;3.08;;;;;;;;;;5033830;28;20428;-80
2023/05/07 11:06:12;;;;;;;6.15;3.30;;;;;;;;;;5042862;28;20443;-80
2023/05/07 11:08:54;;;;;;;6.45;2.78;;;;;;;;;;5032034;28;20435;-80
2023/05/07 11:11:45;;;;;;;4.50;2.70;;;;;;;;;;5041057;28;20514;-80
2023/05/07 11:14:32;;;;;;;4.90;2.90;;;;;;;;;;5028547;28;20602;-81
2023/05/07 11:17:09;;;;;;;6.90;2.92;;;;;;;;;;5036543;28;20792;-79
2023/05/07 11:19:50;;;;;;;4.85;2.80;;;;;;;;;;5029647;28;20430;-80
2023/05/07 11:22:40;;;;;;;4.57;2.65;;;;;;;;;;5034456;28;20431;-79
2023/05/07 11:25:23;;;;;;;4.70;2.80;;;;;;;;;;5038189;28;20419;-80
2023/05/07 11:28:10;;;;;;;4.45;2.65;;;;;;;;;;5037472;28;20985;-82
2023/05/07 11:30:53;;;;;;;5.30;2.78;;;;;;;;;;5035726;28;20427;-80
2023/05/07 11:33:26;;;;;;;4.93;2.72;;;;;;;;;;5034978;28;20439;-83
2023/05/07 11:35:56;;;;;;;5.85;2.70;;;;;;;;;;5041484;28;20432;-80
2023/05/07 11:38:35;;;;;;;5.03;2.42;;;;;;;;;;5038491;28;20435;-80
2023/05/07 11:41:08;;;;;;;4.65;2.70;;;;;;;;;;5039430;28;20435;-82
2023/05/07 11:43:54;;;;;;;5.53;2.80;;;;;;;;;;5038679;28;20424;-81
2023/05/07 11:46:28;;;;;;;5.22;2.20;;;;;;;;;;5044500;28;20431;-81
2023/05/07 11:49:01;;;;;;;5.93;2.30;;;;;;;;;;5039561;28;20443;-81
2023/05/07 11:51:29;;;;;;;5.10;2.38;;;;;;;;;;5039755;28;20431;-80
2023/05/07 11:53:59;;;;;;;4.25;2.50;;;;;;;;;;5036980;28;20461;-79
2023/05/07 11:56:27;;;;;;;6.97;3.00;;;;;;;;;;5036118;28;21292;-81
2023/05/07 11:59:00;;;;;;;5.00;2.72;;;;;;;;;;5035888;28;20470;-81
2023/05/07 12:01:32;;;;;;;4.38;2.50;;;;;;;;;;5034736;28;20436;-81
2023/05/07 12:04:06;;;;;;;3.70;2.42;;;;;;;;;;5041431;28;20435;-80
2023/05/07 12:06:39;;;;;;;4.68;2.53;;;;;;;;;;5035988;28;20435;-80
2023/05/07 12:09:11;;;;;;;5.28;2.50;;;;;;;;;;5035479;28;20434;-81
2023/05/07 12:11:40;;;;;;;4.90;2.50;;;;;;;;;;5038422;28;20427;-81
2023/05/07 12:14:13;;;;;;;3.97;2.30;;;;;;;;;;5039806;28;21423;-80
2023/05/07 12:16:41;;;;;;;3.92;2.35;;;;;;;;;;5032407;28;20438;-80
2023/05/07 12:19:12;;;;;;;4.40;2.30;;;;;;;;;;5038787;28;20432;-79
2023/05/07 12:21:45;;;;;;;4.43;2.38;;;;;;;;;;5032397;28;20419;-81
2023/05/07 12:24:14;;;;;;;3.88;2.20;;;;;;;;;;5028997;28;20743;-80
2023/05/07 12:26:42;;;;;;;3.70;2.20;;;;;;;;;;5021040;28;20428;-81
2023/05/07 12:29:15;;;;;;;4.07;2.20;;;;;;;;;;5038053;28;21761;-80
2023/05/07 12:31:43;;;;;;;4.93;2.25;;;;;;;;;;5035764;28;20425;-79
2023/05/07 12:34:11;;;;;;;4.05;2.30;;;;;;;;;;5040104;28;20427;-81
2023/05/07 12:36:40;;;;;;;5.18;2.40;;;;;;;;;;5037208;28;20427;-80
2023/05/07 12:39:08;;;;;;;5.05;2.20;;;;;;;;;;5038446;28;20435;-80
2023/05/07 12:41:54;;;;;;;4.60;2.30;;;;;;;;;;5040140;28;20423;-80
2023/05/07 12:44:24;;;;;;;4.75;2.20;;;;;;;;;;5043109;28;20443;-82
2023/05/07 12:46:52;;;;;;;5.00;2.28;;;;;;;;;;5041195;28;20436;-80
2023/05/07 12:49:20;;;;;;;3.75;2.35;;;;;;;;;;5036293;28;20439;-81
2023/05/07 12:51:48;;;;;;;4.95;2.50;;;;;;;;;;5035945;28;20427;-81
2023/05/07 12:54:28;;;;;;;4.50;2.13;;;;;;;;;;5040724;28;20442;-80
2023/05/07 12:57:01;;;;;;;5.72;2.50;;;;;;;;;;5041645;28;20439;-80
2023/05/07 12:59:36;;;;;;;4.93;2.58;;;;;;;;;;5044092;28;20435;-83
2023/05/07 13:02:04;;;;;;;6.00;2.50;;;;;;;;;;5044667;28;20435;-81
2023/05/07 13:04:32;;;;;;;5.00;2.50;;;;;;;;;;5043550;28;20461;-83
2023/05/07 13:07:00;;;;;;;4.13;2.55;;;;;;;;;;5045588;28;20460;-81
2023/05/07 13:09:28;;;;;;;4.40;2.65;;;;;;;;;;5048872;28;20420;-80
2023/05/07 13:11:56;;;;;;;3.50;2.05;;;;;;;;;;5043715;28;20431;-80
2023/05/07 13:14:24;;;;;;;4.82;2.25;;;;;;;;;;5045729;28;20424;-79
2023/05/07 13:16:53;;;;;;;4.10;2.10;;;;;;;;;;5047575;28;20478;-80
2023/05/07 13:19:21;;;;;;;3.95;2.30;;;;;;;;;;5044598;28;20427;-83
2023/05/07 13:21:54;;;;;;;3.13;2.10;;;;;;;;;;5042461;28;20485;-83
2023/05/07 13:24:21;;;;;;;4.18;2.40;;;;;;;;;;5039865;28;20904;-82
2023/05/07 13:26:54;;;;;;;3.83;2.03;;;;;;;;;;5035181;28;20423;-82
2023/05/07 13:29:30;;;;;;;3.10;2.00;;;;;;;;;;5037211;28;20431;-82
2023/05/07 13:32:04;;;;;;;4.60;2.20;;;;;;;;;;5038309;28;20447;-83
2023/05/07 13:34:32;;;;;;;3.83;2.03;;;;;;;;;;5038236;28;20424;-82
2023/05/07 13:37:05;;;;;;;3.95;2.15;;;;;;;;;;5040803;28;20785;-83
2023/05/07 13:39:38;;;;;;;4.25;2.22;;;;;;;;;;5042768;28;20435;-83
2023/05/07 13:42:05;;;;;;;3.50;2.00;;;;;;;;;;5047329;28;20435;-83
2023/05/07 13:44:34;;;;;;;4.40;2.00;;;;;;;;;;5040585;28;20431;-83
2023/05/07 13:47:01;;;;;;;3.80;2.00;;;;;;;;;;5047381;28;20448;-85
2023/05/07 13:49:31;;;;;;;2.78;1.80;;;;;;;;;;5039532;28;20435;-83
2023/05/07 13:52:04;;;;;;;5.00;2.20;;;;;;;;;;5037704;28;20931;-84
2023/05/07 13:54:37;;;;;;;3.60;2.10;;;;;;;;;;5039287;28;20439;-83
2023/05/07 13:57:04;;;;;;;3.42;2.03;;;;;;;;;;5040131;28;21207;-83
2023/05/07 13:59:37;;;;;;;3.72;1.98;;;;;;;;;;5041723;28;20443;-84
2023/05/07 14:02:08;;;;;;;2.90;1.95;;;;;;;;;;5058827;28;22331;-83
2023/05/07 14:04:43;;;;;;;4.03;2.10;;;;;;;;;;5039514;28;20423;-83
2023/05/07 14:07:11;;;;;;;3.72;2.20;;;;;;;;;;5042368;28;20478;-82
2023/05/07 14:09:39;;;;;;;3.65;2.10;;;;;;;;;;5042223;28;20431;-83
2023/05/07 14:12:07;;;;;;;3.50;2.10;;;;;;;;;;5043097;28;20502;-82
2023/05/07 14:14:40;;;;;;;3.80;2.00;;;;;;;;;;5040062;28;20437;-81
2023/05/07 14:17:12;;;;;;;3.67;2.10;;;;;;;;;;5042036;28;20513;-83
2023/05/07 14:19:40;;;;;;;3.80;2.00;;;;;;;;;;5035898;28;20435;-82
2023/05/07 14:22:09;;;;;;;3.92;1.88;;;;;;;;;;5043404;28;20784;-83
2023/05/07 14:24:42;;;;;;;3.47;1.90;;;;;;;;;;5040959;28;20429;-82
2023/05/07 14:27:10;;;;;;;3.17;2.00;;;;;;;;;;5029127;28;21491;-83
2023/05/07 14:29:45;;;;;;;3.95;2.00;;;;;;;;;;5037967;28;20436;-81
2023/05/07 14:32:13;;;;;;;3.72;2.00;;;;;;;;;;5058207;28;20428;-83
2023/05/07 14:34:46;;;;;;;3.92;2.20;;;;;;;;;;5038784;28;20413;-82
2023/05/07 14:37:15;;;;;;;3.40;2.10;;;;;;;;;;5039218;28;20442;-82
2023/05/07 14:39:48;;;;;;;4.40;2.00;;;;;;;;;;5041477;28;20474;-81
2023/05/07 14:42:16;;;;;;;5.37;2.33;;;;;;;;;;5046837;28;20784;-82
2023/05/07 14:44:49;;;;;;;4.73;2.10;;;;;;;;;;5039342;28;20432;-82
2023/05/07 14:47:17;;;;;;;4.97;2.33;;;;;;;;;;5047748;28;20993;-82
2023/05/07 14:49:44;;;;;;;3.72;2.20;;;;;;;;;;5042930;28;20443;-83
2023/05/07 14:52:12;;;;;;;4.25;2.30;;;;;;;;;;5042177;28;20423;-86
2023/05/07 14:54:41;;;;;;;3.70;2.20;;;;;;;;;;5038643;28;20434;-83
2023/05/07 14:57:15;;;;;;;4.28;2.40;;;;;;;;;;5040874;28;20790;-80
2023/05/07 14:59:43;;;;;;;4.47;2.20;;;;;;;;;;5043228;28;20436;-83
2023/05/07 15:02:17;;;;;;;4.22;2.13;;;;;;;;;;5048520;28;20429;-83